Time,TemperatureF,DewpointF,PressureIn,WindDirection,WindDirectionDegrees,WindSpeedMPH,WindSpeedGustMPH,Humidity,HourlyPrecipIn,Conditions,Clouds,dailyrainin,SoftwareType,DateUTC
2013-09-29 00:00:00,45.3,39.2,29.82,South,180,4.0,5.0,79,0.00,,,0.00,meteohub,2013-09-29 05:00:00,
2013-09-29 00:05:00,45.3,39.2,29.82,South,180,4.0,5.0,79,0.00,,,0.00,meteohub,2013-09-29 05:05:00,
2013-09-29 00:10:00,45.1,39.0,29.82,South,180,4.0,5.0,79,0.00,,,0.00,meteohub,2013-09-29 05:10:00,
2013-09-29 00:15:00,45.1,39.0,29.82,South,180,4.0,4.0,79,0.00,,,0.00,meteohub,2013-09-29 05:15:00,
2013-09-29 00:20:00,45.1,39.0,29.81,South,180,4.0,4.0,79,-99.99,,,0.00,meteohub,2013-09-29 05:20:00,
2013-09-29 00:25:00,45.1,39.0,29.82,South,180,6.0,6.0,79,0.00,,,0.00,meteohub,2013-09-29 05:25:00,
2013-09-29 00:30:00,45.3,39.2,29.81,SW,225,7.0,7.0,79,0.00,,,0.00,meteohub,2013-09-29 05:30:00,
2013-09-29 00:35:00,45.5,39.7,29.82,SW,225,7.0,7.0,80,0.00,,,0.00,meteohub,2013-09-29 05:35:00,
2013-09-29 00:40:00,45.5,39.7,29.82,SW,225,6.0,7.0,80,0.00,,,0.00,meteohub,2013-09-29 05:40:00,
2013-09-29 00:45:00,45.3,39.6,29.82,WSW,248,7.0,8.0,80,0.00,,,0.00,meteohub,2013-09-29 05:45:00,
2013-09-29 00:50:00,45.3,39.6,29.82,SW,225,8.0,8.0,80,0.00,,,0.00,meteohub,2013-09-29 05:50:00,
2013-09-29 00:55:00,45.5,39.7,29.82,SW,225,8.0,8.0,80,0.00,,,0.00,meteohub,2013-09-29 05:55:00,
2013-09-29 01:01:00,45.5,39.7,29.82,WSW,248,8.0,9.0,80,0.00,,,0.00,meteohub,2013-09-29 06:01:00,
2013-09-29 01:06:00,45.7,39.9,29.82,SW,225,8.0,9.0,80,0.00,,,0.00,meteohub,2013-09-29 06:06:00,
2013-09-29 01:11:00,45.7,39.9,29.82,WSW,248,8.0,15.0,80,0.00,,,0.00,meteohub,2013-09-29 06:11:00,
2013-09-29 01:16:00,45.9,40.3,29.82,SW,225,8.0,15.0,81,0.00,,,0.00,meteohub,2013-09-29 06:16:00,
2013-09-29 01:21:00,46.0,40.5,29.82,SW,225,8.0,11.0,81,0.00,,,0.00,meteohub,2013-09-29 06:21:00,
2013-09-29 01:26:00,45.9,40.3,29.83,SW,225,7.0,11.0,81,0.00,,,0.00,meteohub,2013-09-29 06:26:00,
2013-09-29 01:31:00,45.7,40.1,29.82,SW,225,6.0,9.0,81,0.00,,,0.00,meteohub,2013-09-29 06:31:00,
2013-09-29 01:36:00,45.7,40.1,29.82,WSW,248,7.0,8.0,81,0.00,,,0.00,meteohub,2013-09-29 06:36:00,
2013-09-29 01:41:00,45.5,40.1,29.83,SW,225,7.0,8.0,81,0.00,,,0.00,meteohub,2013-09-29 06:41:00,
2013-09-29 01:46:00,45.3,39.9,29.82,WSW,248,7.0,8.0,81,0.00,,,0.00,meteohub,2013-09-29 06:46:00,
2013-09-29 01:52:00,45.3,39.9,29.83,WSW,248,7.0,8.0,81,0.00,,,0.00,meteohub,2013-09-29 06:52:00,
2013-09-29 01:57:00,45.1,39.7,29.83,WSW,248,7.0,8.0,81,0.00,,,0.00,meteohub,2013-09-29 06:57:00,
2013-09-29 02:02:00,45.1,39.7,29.83,WSW,248,7.0,8.0,81,0.00,,,0.00,meteohub,2013-09-29 07:02:00,
2013-09-29 02:07:00,45.1,39.7,29.82,SW,225,8.0,8.0,81,0.00,,,0.00,meteohub,2013-09-29 07:07:00,
2013-09-29 02:12:00,45.3,39.9,29.82,SW,225,8.0,8.0,81,0.00,,,0.00,meteohub,2013-09-29 07:12:00,
2013-09-29 02:17:00,45.3,39.9,29.83,West,270,7.0,9.0,81,0.00,,,0.00,meteohub,2013-09-29 07:17:00,
2013-09-29 02:22:00,45.5,40.1,29.82,West,270,8.0,9.0,81,0.00,,,0.00,meteohub,2013-09-29 07:22:00,
2013-09-29 02:27:00,45.7,40.1,29.82,SW,225,7.0,9.0,81,0.00,,,0.00,meteohub,2013-09-29 07:27:00,
2013-09-29 02:32:00,45.5,40.1,29.82,SW,225,6.0,9.0,81,0.00,,,0.00,meteohub,2013-09-29 07:32:00,
2013-09-29 02:37:00,45.5,40.1,29.83,SW,225,6.0,8.0,81,0.00,,,0.00,meteohub,2013-09-29 07:37:00,
2013-09-29 02:42:00,45.3,39.9,29.82,WSW,248,6.0,8.0,81,0.00,,,0.00,meteohub,2013-09-29 07:42:00,
2013-09-29 02:47:00,45.3,39.9,29.83,SW,225,6.0,7.0,81,0.00,,,0.00,meteohub,2013-09-29 07:47:00,
2013-09-29 02:52:00,45.3,39.9,29.82,South,180,5.0,7.0,81,0.00,,,0.00,meteohub,2013-09-29 07:52:00,
2013-09-29 02:58:00,45.1,39.7,29.82,SSW,203,5.0,7.0,81,0.00,,,0.00,meteohub,2013-09-29 07:58:00,
2013-09-29 03:03:00,45.0,39.6,29.82,South,180,5.0,7.0,81,0.00,,,0.00,meteohub,2013-09-29 08:03:00,
2013-09-29 03:08:00,44.6,39.2,29.81,South,180,6.0,7.0,81,0.00,,,0.00,meteohub,2013-09-29 08:08:00,
2013-09-29 03:13:00,44.2,39.0,29.82,South,180,5.0,6.0,82,0.00,,,0.00,meteohub,2013-09-29 08:13:00,
2013-09-29 03:18:00,44.2,39.0,29.82,South,180,5.0,6.0,82,0.00,,,0.00,meteohub,2013-09-29 08:18:00,
2013-09-29 03:23:00,44.2,39.0,29.81,South,180,5.0,6.0,82,0.00,,,0.00,meteohub,2013-09-29 08:23:00,
2013-09-29 03:28:00,44.1,38.8,29.82,South,180,5.0,6.0,82,0.00,,,0.00,meteohub,2013-09-29 08:28:00,
2013-09-29 03:33:00,44.1,38.8,29.82,South,180,5.0,6.0,82,0.00,,,0.00,meteohub,2013-09-29 08:33:00,
2013-09-29 03:38:00,44.1,38.8,29.81,South,180,6.0,6.0,82,0.00,,,0.00,meteohub,2013-09-29 08:38:00,
2013-09-29 03:43:00,43.9,38.7,29.81,South,180,5.0,7.0,82,0.00,,,0.00,meteohub,2013-09-29 08:43:00,
2013-09-29 03:48:00,43.7,38.5,29.81,South,180,6.0,7.0,82,0.00,,,0.00,meteohub,2013-09-29 08:48:00,
2013-09-29 03:53:00,43.7,38.5,29.82,South,180,6.0,7.0,82,0.00,,,0.00,meteohub,2013-09-29 08:53:00,
2013-09-29 03:58:00,43.7,38.5,29.82,South,180,4.0,6.0,82,0.00,,,0.00,meteohub,2013-09-29 08:58:00,
2013-09-29 04:04:00,43.7,38.5,29.82,South,180,5.0,6.0,82,0.00,,,0.00,meteohub,2013-09-29 09:04:00,
2013-09-29 04:09:00,43.7,38.5,29.82,South,180,6.0,6.0,82,0.00,,,0.00,meteohub,2013-09-29 09:09:00,
2013-09-29 04:14:00,43.5,38.5,29.82,South,180,7.0,7.0,82,0.00,,,0.00,meteohub,2013-09-29 09:14:00,
2013-09-29 04:19:00,43.5,38.5,29.82,South,180,7.0,7.0,82,0.00,,,0.00,meteohub,2013-09-29 09:19:00,
2013-09-29 04:24:00,43.5,38.5,29.82,South,180,7.0,7.0,82,0.00,,,0.00,meteohub,2013-09-29 09:24:00,
2013-09-29 04:29:00,43.3,38.3,29.82,South,180,7.0,7.0,82,0.00,,,0.00,meteohub,2013-09-29 09:29:00,
2013-09-29 04:34:00,43.3,38.3,29.82,South,180,6.0,8.0,82,0.00,,,0.00,meteohub,2013-09-29 09:34:00,
2013-09-29 04:39:00,43.7,38.5,29.82,South,180,6.0,8.0,82,0.00,,,0.00,meteohub,2013-09-29 09:39:00,
2013-09-29 04:44:00,43.7,38.8,29.81,South,180,6.0,8.0,83,0.00,,,0.00,meteohub,2013-09-29 09:44:00,
2013-09-29 04:49:00,43.7,38.8,29.81,South,180,5.0,8.0,83,0.00,,,0.00,meteohub,2013-09-29 09:49:00,
2013-09-29 04:54:00,43.7,38.8,29.81,South,180,4.0,7.0,83,0.00,,,0.00,meteohub,2013-09-29 09:54:00,
2013-09-29 04:59:00,43.0,37.9,29.81,South,180,4.0,7.0,82,0.00,,,0.00,meteohub,2013-09-29 09:59:00,
2013-09-29 05:04:00,42.4,37.6,29.81,South,180,4.0,7.0,83,0.00,,,0.00,meteohub,2013-09-29 10:04:00,
2013-09-29 05:09:00,41.9,37.0,29.81,South,180,4.0,5.0,83,0.00,,,0.00,meteohub,2013-09-29 10:09:00,
2013-09-29 05:15:00,41.5,36.7,29.81,South,180,4.0,5.0,83,0.00,,,0.00,meteohub,2013-09-29 10:15:00,
2013-09-29 05:20:00,41.4,36.5,29.81,South,180,4.0,5.0,83,0.00,,,0.00,meteohub,2013-09-29 10:20:00,
2013-09-29 05:25:00,41.2,36.5,29.82,South,180,5.0,5.0,83,0.00,,,0.00,meteohub,2013-09-29 10:25:00,
2013-09-29 05:30:00,41.2,36.5,29.82,South,180,5.0,5.0,83,0.00,,,0.00,meteohub,2013-09-29 10:30:00,
2013-09-29 05:35:00,41.4,36.5,29.81,South,180,4.0,6.0,83,0.00,,,0.00,meteohub,2013-09-29 10:35:00,
2013-09-29 05:40:00,41.2,36.5,29.81,South,180,4.0,6.0,83,0.00,,,0.00,meteohub,2013-09-29 10:40:00,
2013-09-29 05:45:00,41.2,36.5,29.82,South,180,4.0,6.0,83,0.00,,,0.00,meteohub,2013-09-29 10:45:00,
2013-09-29 05:50:00,41.2,36.7,29.82,South,180,4.0,5.0,84,0.00,,,0.00,meteohub,2013-09-29 10:50:00,
2013-09-29 05:55:00,41.2,36.7,29.82,South,180,4.0,5.0,84,0.00,,,0.00,meteohub,2013-09-29 10:55:00,
2013-09-29 06:00:00,41.2,36.7,29.82,South,180,4.0,5.0,84,0.00,,,0.00,meteohub,2013-09-29 11:00:00,
2013-09-29 06:05:00,41.2,36.7,29.81,WSW,248,4.0,6.0,84,0.00,,,0.00,meteohub,2013-09-29 11:05:00,
2013-09-29 06:10:00,41.4,36.9,29.81,South,180,4.0,6.0,84,0.00,,,0.00,meteohub,2013-09-29 11:10:00,
2013-09-29 06:16:00,41.5,37.0,29.82,South,180,4.0,6.0,84,0.00,,,0.00,meteohub,2013-09-29 11:16:00,
2013-09-29 06:21:00,41.7,37.2,29.82,South,180,6.0,6.0,84,0.00,,,0.00,meteohub,2013-09-29 11:21:00,
2013-09-29 06:26:00,42.1,37.9,29.81,South,180,4.0,6.0,85,0.00,,,0.00,meteohub,2013-09-29 11:26:00,
2013-09-29 06:31:00,41.7,37.6,29.81,SSE,158,4.0,6.0,85,0.00,,,0.00,meteohub,2013-09-29 11:31:00,
2013-09-29 06:36:00,41.7,37.2,29.81,South,180,4.0,6.0,84,0.00,,,0.00,meteohub,2013-09-29 11:36:00,
2013-09-29 06:41:00,41.4,36.9,29.82,South,180,4.0,4.0,84,0.00,,,0.00,meteohub,2013-09-29 11:41:00,
2013-09-29 06:46:00,41.0,36.5,29.81,South,180,6.0,6.0,84,0.00,,,0.00,meteohub,2013-09-29 11:46:00,
2013-09-29 06:51:00,40.6,36.5,29.81,South,180,7.0,7.0,85,0.00,,,0.00,meteohub,2013-09-29 11:51:00,
2013-09-29 06:56:00,40.6,36.5,29.81,South,180,7.0,8.0,85,0.00,,,0.00,meteohub,2013-09-29 11:56:00,
2013-09-29 07:01:00,40.6,36.5,29.81,South,180,7.0,8.0,85,0.00,,,0.00,meteohub,2013-09-29 12:01:00,
2013-09-29 07:06:00,40.6,36.5,29.81,South,180,6.0,8.0,85,0.00,,,0.00,meteohub,2013-09-29 12:06:00,
2013-09-29 07:11:00,40.5,36.3,29.81,South,180,6.0,8.0,85,0.00,,,0.00,meteohub,2013-09-29 12:11:00,
2013-09-29 07:16:00,40.5,36.7,29.81,South,180,5.0,8.0,86,0.00,,,0.00,meteohub,2013-09-29 12:16:00,
2013-09-29 07:22:00,40.3,36.5,29.81,SE,135,5.0,7.0,86,0.00,,,0.00,meteohub,2013-09-29 12:22:00,
2013-09-29 07:27:00,40.3,36.5,29.81,SSE,158,6.0,7.0,86,0.00,,,0.00,meteohub,2013-09-29 12:27:00,
2013-09-29 07:32:00,40.3,36.5,29.82,South,180,6.0,7.0,86,0.00,,,0.00,meteohub,2013-09-29 12:32:00,
2013-09-29 07:37:00,40.3,36.5,29.81,SE,135,6.0,7.0,86,0.00,,,0.00,meteohub,2013-09-29 12:37:00,
2013-09-29 07:42:00,40.6,36.9,29.81,South,180,5.0,7.0,86,0.00,,,0.00,meteohub,2013-09-29 12:42:00,
2013-09-29 07:47:00,41.0,37.2,29.82,SSE,158,5.0,7.0,86,0.00,,,0.00,meteohub,2013-09-29 12:47:00,
2013-09-29 07:53:00,41.5,37.6,29.82,South,180,5.0,6.0,86,0.00,,,0.00,meteohub,2013-09-29 12:53:00,
2013-09-29 07:58:00,42.3,38.3,29.82,SE,135,4.0,6.0,86,0.00,,,0.00,meteohub,2013-09-29 12:58:00,
2013-09-29 08:03:00,42.8,38.8,29.82,South,180,5.0,6.0,86,0.00,,,0.00,meteohub,2013-09-29 13:03:00,
2013-09-29 08:08:00,43.5,39.6,29.81,SE,135,6.0,6.0,86,0.00,,,0.00,meteohub,2013-09-29 13:08:00,
2013-09-29 08:13:00,44.2,40.3,29.82,SSE,158,7.0,7.0,86,0.00,,,0.00,meteohub,2013-09-29 13:13:00,
2013-09-29 08:18:00,45.0,41.0,29.81,SE,135,8.0,8.0,86,0.00,,,0.00,meteohub,2013-09-29 13:18:00,
2013-09-29 08:23:00,45.7,41.7,29.81,SE,135,7.0,8.0,86,0.00,,,0.00,meteohub,2013-09-29 13:23:00,
2013-09-29 08:30:00,46.6,42.6,29.82,SE,135,7.0,8.0,86,0.00,,,0.00,meteohub,2013-09-29 13:30:00,
2013-09-29 08:35:00,47.5,43.5,29.82,South,180,8.0,8.0,86,0.00,,,0.00,meteohub,2013-09-29 13:35:00,
2013-09-29 08:40:00,48.2,43.9,29.81,South,180,8.0,8.0,85,0.00,,,0.00,meteohub,2013-09-29 13:40:00,
2013-09-29 08:45:00,48.9,44.6,29.81,South,180,8.0,9.0,85,0.00,,,0.00,meteohub,2013-09-29 13:45:00,
2013-09-29 08:50:00,49.6,45.3,29.81,South,180,8.0,9.0,85,0.00,,,0.00,meteohub,2013-09-29 13:50:00,
2013-09-29 08:56:00,50.2,45.5,29.81,South,180,9.0,10.0,84,0.00,,,0.00,meteohub,2013-09-29 13:56:00,
2013-09-29 09:01:00,50.9,46.2,29.81,SE,135,7.0,10.0,84,0.00,,,0.00,meteohub,2013-09-29 14:01:00,
2013-09-29 09:06:00,51.4,46.8,29.80,South,180,8.0,10.0,84,0.00,,,0.00,meteohub,2013-09-29 14:06:00,
2013-09-29 09:11:00,52.0,46.6,29.80,South,180,8.0,9.0,82,0.00,,,0.00,meteohub,2013-09-29 14:11:00,
2013-09-29 09:16:00,52.7,47.3,29.80,SE,135,8.0,9.0,82,0.00,,,0.00,meteohub,2013-09-29 14:16:00,
2013-09-29 09:21:00,53.2,47.8,29.80,South,180,8.0,10.0,82,0.00,,,0.00,meteohub,2013-09-29 14:21:00,
2013-09-29 09:26:00,53.8,47.8,29.80,SE,135,10.0,10.0,80,0.00,,,0.00,meteohub,2013-09-29 14:26:00,
2013-09-29 09:31:00,54.5,48.4,29.80,SE,135,9.0,11.0,80,0.00,,,0.00,meteohub,2013-09-29 14:31:00,
2013-09-29 09:36:00,55.0,48.6,29.80,South,180,9.0,12.0,79,0.00,,,0.00,meteohub,2013-09-29 14:36:00,
2013-09-29 09:41:00,55.6,48.9,29.81,SE,135,11.0,12.0,78,0.00,,,0.00,meteohub,2013-09-29 14:41:00,
2013-09-29 09:46:00,56.3,48.9,29.80,South,180,10.0,12.0,76,0.00,,,0.00,meteohub,2013-09-29 14:46:00,
2013-09-29 09:51:00,57.0,49.1,29.80,SSE,158,10.0,11.0,75,0.00,,,0.00,meteohub,2013-09-29 14:51:00,
2013-09-29 09:56:00,57.6,48.9,29.80,SE,135,10.0,11.0,73,0.00,,,0.00,meteohub,2013-09-29 14:56:00,
2013-09-29 10:02:00,58.3,49.3,29.80,South,180,8.0,11.0,72,0.00,,,0.00,meteohub,2013-09-29 15:02:00,
2013-09-29 10:07:00,59.0,49.6,29.80,SE,135,9.0,11.0,71,0.00,,,0.00,meteohub,2013-09-29 15:07:00,
2013-09-29 10:12:00,59.4,49.6,29.79,SSE,158,10.0,11.0,70,0.00,,,0.00,meteohub,2013-09-29 15:12:00,
2013-09-29 10:17:00,59.9,49.3,29.80,South,180,9.0,11.0,68,0.00,,,0.00,meteohub,2013-09-29 15:17:00,
2013-09-29 10:22:00,60.6,49.6,29.79,SE,135,13.0,13.0,67,0.00,,,0.00,meteohub,2013-09-29 15:22:00,
2013-09-29 10:27:00,61.0,49.1,29.79,South,180,11.0,13.0,65,0.00,,,0.00,meteohub,2013-09-29 15:27:00,
2013-09-29 10:32:00,61.9,49.6,29.79,SE,135,11.0,13.0,64,0.00,,,0.00,meteohub,2013-09-29 15:32:00,
2013-09-29 10:37:00,62.6,49.5,29.79,South,180,11.0,13.0,62,0.00,,,0.00,meteohub,2013-09-29 15:37:00,
2013-09-29 10:42:00,63.0,49.3,29.78,South,180,11.0,12.0,61,0.00,,,0.00,meteohub,2013-09-29 15:42:00,
2013-09-29 10:47:00,63.7,50.0,29.78,South,180,11.0,13.0,61,0.00,,,0.00,meteohub,2013-09-29 15:47:00,
2013-09-29 10:52:00,64.2,49.6,29.78,SE,135,11.0,13.0,59,0.00,,,0.00,meteohub,2013-09-29 15:52:00,
2013-09-29 10:57:00,64.9,50.2,29.78,South,180,15.0,15.0,59,0.00,,,0.00,meteohub,2013-09-29 15:57:00,
2013-09-29 11:03:00,65.7,50.0,29.78,South,180,11.0,15.0,57,0.00,,,0.00,meteohub,2013-09-29 16:03:00,
2013-09-29 11:08:00,66.4,50.2,29.78,SE,135,11.0,15.0,56,0.00,,,0.00,meteohub,2013-09-29 16:08:00,
2013-09-29 11:13:00,66.9,49.8,29.78,SE,135,10.0,15.0,54,0.00,,,0.00,meteohub,2013-09-29 16:13:00,
2013-09-29 11:18:00,67.3,50.0,29.78,SE,135,11.0,15.0,54,0.00,,,0.00,meteohub,2013-09-29 16:18:00,
2013-09-29 11:24:00,68.0,49.6,29.77,South,180,13.0,15.0,52,0.00,,,0.00,meteohub,2013-09-29 16:24:00,
2013-09-29 11:29:00,68.5,49.6,29.77,South,180,17.0,17.0,51,0.00,,,0.00,meteohub,2013-09-29 16:29:00,
2013-09-29 11:34:00,68.9,49.5,29.77,South,180,13.0,17.0,50,0.00,,,0.00,meteohub,2013-09-29 16:34:00,
2013-09-29 11:39:00,69.4,49.5,29.77,South,180,15.0,17.0,49,0.00,,,0.00,meteohub,2013-09-29 16:39:00,
2013-09-29 11:44:00,70.0,48.7,29.76,South,180,17.0,19.0,47,0.00,,,0.00,meteohub,2013-09-29 16:44:00,
2013-09-29 11:49:00,70.3,48.0,29.76,South,180,17.0,19.0,45,0.00,,,0.00,meteohub,2013-09-29 16:49:00,
2013-09-29 11:54:00,70.7,48.4,29.76,South,180,15.0,19.0,45,0.00,,,0.00,meteohub,2013-09-29 16:54:00,
2013-09-29 11:59:00,71.2,48.2,29.75,South,180,16.0,20.0,44,0.00,,,0.00,meteohub,2013-09-29 16:59:00,
2013-09-29 12:04:00,71.4,47.8,29.75,South,180,15.0,20.0,43,0.00,,,0.00,meteohub,2013-09-29 17:04:00,
2013-09-29 12:09:00,72.3,47.3,29.75,South,180,14.0,21.0,41,0.00,,,0.00,meteohub,2013-09-29 17:09:00,
2013-09-29 12:14:00,72.9,47.8,29.75,South,180,14.0,21.0,41,0.00,,,0.00,meteohub,2013-09-29 17:14:00,
2013-09-29 12:19:00,73.0,47.3,29.75,SE,135,21.0,21.0,40,0.00,,,0.00,meteohub,2013-09-29 17:19:00,
2013-09-29 12:25:00,73.0,46.6,29.75,South,180,19.0,21.0,39,0.00,,,0.00,meteohub,2013-09-29 17:25:00,
2013-09-29 12:30:00,73.6,48.4,29.75,South,180,15.0,21.0,41,0.00,,,0.00,meteohub,2013-09-29 17:30:00,
2013-09-29 12:35:00,73.9,48.0,29.74,South,180,21.0,21.0,40,0.00,,,0.00,meteohub,2013-09-29 17:35:00,
2013-09-29 12:40:00,74.1,46.9,29.73,South,180,19.0,21.0,38,0.00,,,0.00,meteohub,2013-09-29 17:40:00,
2013-09-29 12:45:00,74.5,47.8,29.73,South,180,15.0,21.0,39,0.00,,,0.00,meteohub,2013-09-29 17:45:00,
2013-09-29 12:50:00,74.7,47.3,29.73,South,180,17.0,21.0,38,0.00,,,0.00,meteohub,2013-09-29 17:50:00,
2013-09-29 12:55:00,74.8,47.5,29.73,South,180,19.0,21.0,38,0.00,,,0.00,meteohub,2013-09-29 17:55:00,
2013-09-29 13:00:00,74.8,48.2,29.73,South,180,20.0,21.0,39,0.00,,,0.00,meteohub,2013-09-29 18:00:00,
2013-09-29 13:05:00,75.0,48.4,29.73,South,180,17.0,22.0,39,0.00,,,0.00,meteohub,2013-09-29 18:05:00,
2013-09-29 13:11:00,75.2,47.1,29.73,South,180,17.0,22.0,37,0.00,,,0.00,meteohub,2013-09-29 18:11:00,
2013-09-29 13:16:00,74.7,47.3,29.72,South,180,16.0,23.0,38,0.00,,,0.00,meteohub,2013-09-29 18:16:00,
2013-09-29 13:21:00,74.7,48.7,29.72,South,180,16.0,23.0,40,0.00,,,0.00,meteohub,2013-09-29 18:21:00,
2013-09-29 13:26:00,75.0,49.6,29.72,SW,225,16.0,23.0,41,0.00,,,0.00,meteohub,2013-09-29 18:26:00,
2013-09-29 13:31:00,74.8,47.5,29.71,South,180,17.0,23.0,38,0.00,,,0.00,meteohub,2013-09-29 18:31:00,
2013-09-29 13:36:00,75.0,49.6,29.71,South,180,13.0,22.0,41,0.00,,,0.00,meteohub,2013-09-29 18:36:00,
2013-09-29 13:41:00,75.0,49.1,29.71,South,180,17.0,22.0,40,0.00,,,0.00,meteohub,2013-09-29 18:41:00,
2013-09-29 13:46:00,75.0,49.1,29.70,South,180,21.0,21.0,40,0.00,,,0.00,meteohub,2013-09-29 18:46:00,
2013-09-29 13:51:00,75.6,48.9,29.70,South,180,16.0,21.0,39,0.00,,,0.00,meteohub,2013-09-29 18:51:00,
2013-09-29 13:56:00,75.9,49.8,29.70,South,180,21.0,21.0,40,0.00,,,0.00,meteohub,2013-09-29 18:56:00,
2013-09-29 14:02:00,75.4,48.7,29.70,South,180,17.0,21.0,39,0.00,,,0.00,meteohub,2013-09-29 19:02:00,
2013-09-29 14:07:00,75.6,49.5,29.70,South,180,17.0,21.0,40,0.00,,,0.00,meteohub,2013-09-29 19:07:00,
2013-09-29 14:12:00,75.7,48.4,29.69,South,180,17.0,21.0,38,0.00,,,0.00,meteohub,2013-09-29 19:12:00,
2013-09-29 14:17:00,76.1,49.3,29.69,South,180,15.0,20.0,39,0.00,,,0.00,meteohub,2013-09-29 19:17:00,
2013-09-29 14:22:00,76.5,49.6,29.69,South,180,17.0,19.0,39,0.00,,,0.00,meteohub,2013-09-29 19:22:00,
2013-09-29 14:27:00,76.5,47.5,29.69,South,180,12.0,21.0,36,0.00,,,0.00,meteohub,2013-09-29 19:27:00,
2013-09-29 14:32:00,76.5,49.6,29.68,South,180,17.0,21.0,39,0.00,,,0.00,meteohub,2013-09-29 19:32:00,
2013-09-29 14:37:00,76.8,50.0,29.68,South,180,13.0,21.0,39,0.00,,,0.00,meteohub,2013-09-29 19:37:00,
2013-09-29 14:42:00,77.4,49.8,29.68,South,180,16.0,18.0,38,0.00,,,0.00,meteohub,2013-09-29 19:42:00,
2013-09-29 14:47:00,77.5,47.7,29.68,South,180,18.0,18.0,35,0.00,,,0.00,meteohub,2013-09-29 19:47:00,
2013-09-29 14:52:00,77.5,47.7,29.68,South,180,18.0,21.0,35,0.00,,,0.00,meteohub,2013-09-29 19:52:00,
2013-09-29 14:57:00,77.7,47.8,29.67,South,180,15.0,21.0,35,0.00,,,0.00,meteohub,2013-09-29 19:57:00,
2013-09-29 15:02:00,77.7,47.1,29.67,South,180,15.0,20.0,34,0.00,,,0.00,meteohub,2013-09-29 20:02:00,
2013-09-29 15:07:00,77.9,47.3,29.67,South,180,15.0,20.0,34,0.00,,,0.00,meteohub,2013-09-29 20:07:00,
2013-09-29 15:12:00,78.1,47.5,29.66,South,180,15.0,20.0,34,0.00,,,0.00,meteohub,2013-09-29 20:12:00,
2013-09-29 15:17:00,78.3,46.8,29.66,South,180,16.0,20.0,33,0.00,,,0.00,meteohub,2013-09-29 20:17:00,
2013-09-29 15:22:00,78.4,46.9,29.66,South,180,17.0,20.0,33,0.00,,,0.00,meteohub,2013-09-29 20:22:00,
2013-09-29 15:27:00,78.8,46.4,29.66,South,180,15.0,21.0,32,0.00,,,0.00,meteohub,2013-09-29 20:27:00,
2013-09-29 15:33:00,79.3,46.0,29.65,South,180,18.0,21.0,31,0.00,,,0.00,meteohub,2013-09-29 20:33:00,
2013-09-29 15:39:00,79.0,45.7,29.65,South,180,16.0,21.0,31,0.00,,,0.00,meteohub,2013-09-29 20:39:00,
2013-09-29 15:44:00,79.0,45.0,29.65,South,180,14.0,21.0,30,0.00,,,0.00,meteohub,2013-09-29 20:44:00,
2013-09-29 15:49:00,79.5,46.2,29.65,South,180,17.0,21.0,31,0.00,,,0.00,meteohub,2013-09-29 20:49:00,
2013-09-29 15:54:00,79.9,45.7,29.65,South,180,16.0,21.0,30,0.00,,,0.00,meteohub,2013-09-29 20:54:00,
2013-09-29 15:59:00,80.2,46.0,29.65,South,180,13.0,21.0,30,0.00,,,0.00,meteohub,2013-09-29 20:59:00,
2013-09-29 16:04:00,80.6,44.4,29.65,South,180,16.0,21.0,28,0.00,,,0.00,meteohub,2013-09-29 21:04:00,
2013-09-29 16:09:00,81.0,42.8,29.64,South,180,16.0,21.0,26,0.00,,,0.00,meteohub,2013-09-29 21:09:00,
2013-09-29 16:14:00,81.1,45.0,29.64,South,180,17.0,21.0,28,0.00,,,0.00,meteohub,2013-09-29 21:14:00,
2013-09-29 16:19:00,80.6,44.4,29.63,South,180,21.0,21.0,28,0.00,,,0.00,meteohub,2013-09-29 21:19:00,
2013-09-29 16:24:00,79.9,44.8,29.64,South,180,17.0,21.0,29,0.00,,,0.00,meteohub,2013-09-29 21:24:00,
2013-09-29 16:29:00,80.2,45.1,29.63,South,180,16.0,22.0,29,0.00,,,0.00,meteohub,2013-09-29 21:29:00,
2013-09-29 16:35:00,81.0,45.7,29.63,South,180,17.0,22.0,29,0.00,,,0.00,meteohub,2013-09-29 21:35:00,
2013-09-29 16:40:00,81.7,45.3,29.63,South,180,17.0,22.0,28,0.00,,,0.00,meteohub,2013-09-29 21:40:00,
2013-09-29 16:45:00,81.9,43.7,29.63,South,180,16.0,22.0,26,0.00,,,0.00,meteohub,2013-09-29 21:45:00,
2013-09-29 16:50:00,82.2,43.9,29.62,South,180,18.0,20.0,26,0.00,,,0.00,meteohub,2013-09-29 21:50:00,
2013-09-29 16:55:00,82.0,43.7,29.62,South,180,12.0,20.0,26,0.00,,,0.00,meteohub,2013-09-29 21:55:00,
2013-09-29 17:00:00,82.0,42.8,29.62,South,180,18.0,20.0,25,0.00,,,0.00,meteohub,2013-09-29 22:00:00,
2013-09-29 17:05:00,81.7,43.5,29.62,South,180,18.0,21.0,26,0.00,,,0.00,meteohub,2013-09-29 22:05:00,
2013-09-29 17:10:00,81.3,43.2,29.62,South,180,16.0,21.0,26,0.00,,,0.00,meteohub,2013-09-29 22:10:00,
2013-09-29 17:15:00,81.3,44.1,29.62,South,180,15.0,26.0,27,0.00,,,0.00,meteohub,2013-09-29 22:15:00,
2013-09-29 17:20:00,81.1,44.1,29.62,South,180,16.0,20.0,27,0.00,,,0.00,meteohub,2013-09-29 22:20:00,
2013-09-29 17:25:00,81.0,44.8,29.62,South,180,15.0,19.0,28,0.00,,,0.00,meteohub,2013-09-29 22:25:00,
2013-09-29 17:30:00,81.1,45.0,29.62,South,180,13.0,19.0,28,0.00,,,0.00,meteohub,2013-09-29 22:30:00,
2013-09-29 17:35:00,81.0,44.8,29.62,South,180,16.0,17.0,28,0.00,,,0.00,meteohub,2013-09-29 22:35:00,
2013-09-29 17:40:00,80.8,44.6,29.62,South,180,11.0,18.0,28,0.00,,,0.00,meteohub,2013-09-29 22:40:00,
2013-09-29 17:45:00,80.8,45.5,29.61,South,180,11.0,18.0,29,0.00,,,0.00,meteohub,2013-09-29 22:45:00,
2013-09-29 17:51:00,80.4,45.3,29.61,South,180,17.0,17.0,29,0.00,,,0.00,meteohub,2013-09-29 22:51:00,
2013-09-29 17:56:00,79.5,45.3,29.61,South,180,16.0,17.0,30,0.00,,,0.00,meteohub,2013-09-29 22:56:00,
2013-09-29 18:01:00,78.6,45.5,29.61,South,180,15.0,17.0,31,0.00,,,0.00,meteohub,2013-09-29 23:01:00,
2013-09-29 18:06:00,77.9,46.4,29.61,South,180,17.0,18.0,33,0.00,,,0.00,meteohub,2013-09-29 23:06:00,
2013-09-29 18:11:00,77.4,46.0,29.61,South,180,16.0,18.0,33,0.00,,,0.00,meteohub,2013-09-29 23:11:00,
2013-09-29 18:16:00,76.6,46.9,29.61,South,180,10.0,18.0,35,0.00,,,0.00,meteohub,2013-09-29 23:16:00,
2013-09-29 18:21:00,75.9,47.1,29.61,SSE,158,11.0,18.0,36,0.00,,,0.00,meteohub,2013-09-29 23:21:00,
2013-09-29 18:26:00,75.2,47.1,29.61,South,180,12.0,18.0,37,0.00,,,0.00,meteohub,2013-09-29 23:26:00,
2013-09-29 18:31:00,74.7,48.7,29.61,South,180,8.0,15.0,40,0.00,,,0.00,meteohub,2013-09-29 23:31:00,
2013-09-29 18:36:00,73.8,48.6,29.61,SE,135,8.0,12.0,41,0.00,,,0.00,meteohub,2013-09-29 23:36:00,
2013-09-29 18:41:00,72.9,46.4,29.61,South,180,8.0,12.0,39,0.00,,,0.00,meteohub,2013-09-29 23:41:00,
2013-09-29 18:46:00,72.0,46.4,29.61,SSE,158,6.0,9.0,40,0.00,,,0.00,meteohub,2013-09-29 23:46:00,
2013-09-29 18:51:00,71.4,46.6,29.61,SSE,158,6.0,9.0,41,0.00,,,0.00,meteohub,2013-09-29 23:51:00,
2013-09-29 18:56:00,70.2,46.0,29.61,SSE,158,5.0,8.0,42,0.00,,,0.00,meteohub,2013-09-29 23:56:00,
2013-09-29 19:02:00,68.5,45.7,29.60,SE,135,7.0,7.0,44,0.00,,,0.00,meteohub,2013-09-30 00:02:00,
2013-09-29 19:07:00,67.3,45.9,29.61,SE,135,7.0,7.0,46,0.00,,,0.00,meteohub,2013-09-30 00:07:00,
2013-09-29 19:12:00,66.0,46.4,29.61,SSE,158,5.0,8.0,49,0.00,,,0.00,meteohub,2013-09-30 00:12:00,
2013-09-29 19:17:00,65.1,46.0,29.61,SE,135,5.0,8.0,50,0.00,,,0.00,meteohub,2013-09-30 00:17:00,
2013-09-29 19:22:00,63.9,44.8,29.61,South,180,7.0,8.0,50,0.00,,,0.00,meteohub,2013-09-30 00:22:00,
2013-09-29 19:27:00,63.1,45.1,29.61,SE,135,7.0,7.0,52,0.00,,,0.00,meteohub,2013-09-30 00:27:00,
2013-09-29 19:32:00,62.4,45.5,29.61,SSE,158,6.0,8.0,54,0.00,,,0.00,meteohub,2013-09-30 00:32:00,
2013-09-29 19:37:00,61.9,45.1,29.62,South,180,6.0,8.0,54,0.00,,,0.00,meteohub,2013-09-30 00:37:00,
2013-09-29 19:42:00,61.3,45.0,29.62,SSE,158,6.0,8.0,55,0.00,,,0.00,meteohub,2013-09-30 00:42:00,
2013-09-29 19:47:00,61.0,45.1,29.61,South,180,6.0,7.0,56,0.00,,,0.00,meteohub,2013-09-30 00:47:00,
2013-09-29 19:52:00,60.4,45.7,29.61,SE,135,7.0,7.0,58,0.00,,,0.00,meteohub,2013-09-30 00:52:00,
2013-09-29 19:57:00,60.1,46.2,29.62,SSE,158,7.0,7.0,60,0.00,,,0.00,meteohub,2013-09-30 00:57:00,
2013-09-29 20:02:00,59.9,46.0,29.62,SE,135,8.0,8.0,60,0.00,,,0.00,meteohub,2013-09-30 01:02:00,
2013-09-29 20:07:00,59.7,45.9,29.62,SSE,158,8.0,9.0,60,0.00,,,0.00,meteohub,2013-09-30 01:07:00,
2013-09-29 20:13:00,59.7,46.2,29.61,SE,135,11.0,11.0,61,0.00,,,0.00,meteohub,2013-09-30 01:13:00,
2013-09-29 20:18:00,60.4,46.9,29.62,SE,135,15.0,15.0,61,0.00,,,0.00,meteohub,2013-09-30 01:18:00,
2013-09-29 20:23:00,61.2,47.1,29.62,SSE,158,12.0,15.0,60,0.00,,,0.00,meteohub,2013-09-30 01:23:00,
2013-09-29 20:28:00,61.9,47.5,29.62,South,180,15.0,15.0,59,0.00,,,0.00,meteohub,2013-09-30 01:28:00,
2013-09-29 20:33:00,62.6,47.7,29.62,South,180,16.0,17.0,58,0.00,,,0.00,meteohub,2013-09-30 01:33:00,
2013-09-29 20:38:00,63.3,47.8,29.62,South,180,17.0,17.0,57,0.00,,,0.00,meteohub,2013-09-30 01:38:00,
2013-09-29 20:43:00,63.9,47.3,29.62,South,180,15.0,18.0,55,0.00,,,0.00,meteohub,2013-09-30 01:43:00,
2013-09-29 20:48:00,64.0,47.1,29.62,South,180,15.0,18.0,54,0.00,,,0.00,meteohub,2013-09-30 01:48:00,
2013-09-29 20:53:00,64.4,47.5,29.62,South,180,21.0,21.0,54,0.00,,,0.00,meteohub,2013-09-30 01:53:00,
2013-09-29 20:58:00,64.8,47.3,29.62,South,180,19.0,21.0,53,0.00,,,0.00,meteohub,2013-09-30 01:58:00,
2013-09-29 21:03:00,64.9,47.5,29.62,South,180,20.0,21.0,53,0.00,,,0.00,meteohub,2013-09-30 02:03:00,
2013-09-29 21:08:00,65.1,47.5,29.63,South,180,18.0,21.0,53,0.00,,,0.00,meteohub,2013-09-30 02:08:00,
2013-09-29 21:13:00,65.1,47.5,29.62,South,180,15.0,21.0,53,0.00,,,0.00,meteohub,2013-09-30 02:13:00,
2013-09-29 21:18:00,64.8,47.3,29.62,South,180,16.0,21.0,53,0.00,,,0.00,meteohub,2013-09-30 02:18:00,
2013-09-29 21:24:00,64.6,47.1,29.62,SE,135,17.0,21.0,53,0.00,,,0.00,meteohub,2013-09-30 02:24:00,
2013-09-29 21:29:00,64.4,46.9,29.62,South,180,17.0,21.0,53,0.00,,,0.00,meteohub,2013-09-30 02:29:00,
2013-09-29 21:34:00,64.0,46.6,29.62,South,180,20.0,21.0,53,0.00,,,0.00,meteohub,2013-09-30 02:34:00,
2013-09-29 21:39:00,64.0,46.6,29.63,South,180,20.0,21.0,53,0.00,,,0.00,meteohub,2013-09-30 02:39:00,
2013-09-29 21:44:00,63.9,46.9,29.62,South,180,19.0,21.0,54,0.00,,,0.00,meteohub,2013-09-30 02:44:00,
2013-09-29 21:49:00,63.9,46.9,29.63,South,180,20.0,21.0,54,0.00,,,0.00,meteohub,2013-09-30 02:49:00,
2013-09-29 21:54:00,63.7,46.8,29.62,South,180,21.0,21.0,54,0.00,,,0.00,meteohub,2013-09-30 02:54:00,
2013-09-29 21:59:00,63.7,46.8,29.62,South,180,16.0,20.0,54,0.00,,,0.00,meteohub,2013-09-30 02:59:00,
2013-09-29 22:04:00,63.3,46.4,29.62,South,180,18.0,21.0,54,0.00,,,0.00,meteohub,2013-09-30 03:04:00,
2013-09-29 22:09:00,63.1,46.8,29.62,South,180,16.0,21.0,55,0.00,,,0.00,meteohub,2013-09-30 03:09:00,
2013-09-29 22:15:00,63.0,46.6,29.62,South,180,15.0,20.0,55,0.00,,,0.00,meteohub,2013-09-30 03:15:00,
2013-09-29 22:20:00,62.8,46.4,29.62,South,180,17.0,20.0,55,0.00,,,0.00,meteohub,2013-09-30 03:20:00,
2013-09-29 22:25:00,62.6,46.2,29.62,South,180,15.0,20.0,55,0.00,,,0.00,meteohub,2013-09-30 03:25:00,
2013-09-29 22:30:00,62.6,46.8,29.62,South,180,18.0,21.0,56,0.00,,,0.00,meteohub,2013-09-30 03:30:00,
2013-09-29 22:35:00,62.4,46.9,29.62,South,180,20.0,21.0,57,0.00,,,0.00,meteohub,2013-09-30 03:35:00,
2013-09-29 22:40:00,62.4,46.9,29.61,South,180,18.0,20.0,57,0.00,,,0.00,meteohub,2013-09-30 03:40:00,
2013-09-29 22:45:00,62.6,46.2,29.62,South,180,21.0,21.0,55,0.00,,,0.00,meteohub,2013-09-30 03:45:00,
2013-09-29 22:50:00,62.8,46.4,29.62,South,180,21.0,21.0,55,0.00,,,0.00,meteohub,2013-09-30 03:50:00,
2013-09-29 22:55:00,63.0,46.0,29.62,South,180,22.0,22.0,54,0.00,,,0.00,meteohub,2013-09-30 03:55:00,
2013-09-29 23:00:00,63.0,46.0,29.61,South,180,19.0,22.0,54,0.00,,,0.00,meteohub,2013-09-30 04:00:00,
2013-09-29 23:01:00,63.0,46.0,29.61,South,180,20.0,22.0,54,0.00,,,0.00,meteohub,2013-09-30 04:01:00,
2013-09-29 23:02:00,63.0,46.0,29.62,South,180,21.0,22.0,54,0.00,,,0.00,meteohub,2013-09-30 04:02:00,
2013-09-29 23:03:00,63.0,46.0,29.62,SSE,158,23.0,23.0,54,0.00,,,0.00,meteohub,2013-09-30 04:03:00,
2013-09-29 23:09:00,63.1,46.2,29.62,South,180,19.0,23.0,54,0.00,,,0.00,meteohub,2013-09-30 04:09:00,
2013-09-29 23:10:00,63.1,45.7,29.62,South,180,20.0,23.0,53,0.00,,,0.00,meteohub,2013-09-30 04:10:00,
2013-09-29 23:15:00,63.3,45.9,29.61,South,180,17.0,23.0,53,0.00,,,0.00,meteohub,2013-09-30 04:15:00,
2013-09-29 23:20:00,63.5,46.0,29.61,South,180,23.0,23.0,53,0.00,,,0.00,meteohub,2013-09-30 04:20:00,
2013-09-29 23:25:00,63.5,45.5,29.61,South,180,22.0,23.0,52,0.00,,,0.00,meteohub,2013-09-30 04:25:00,
2013-09-29 23:30:00,63.9,45.9,29.61,South,180,23.0,25.0,52,0.00,,,0.00,meteohub,2013-09-30 04:30:00,
2013-09-29 23:35:00,64.0,45.5,29.61,South,180,22.0,25.0,51,0.00,,,0.00,meteohub,2013-09-30 04:35:00,
2013-09-29 23:40:00,63.9,45.3,29.60,South,180,21.0,25.0,51,0.00,,,0.00,meteohub,2013-09-30 04:40:00,
2013-09-29 23:45:00,63.9,45.3,29.60,South,180,23.0,24.0,51,0.00,,,0.00,meteohub,2013-09-30 04:45:00,
2013-09-29 23:50:00,63.9,45.3,29.60,South,180,21.0,24.0,51,0.00,,,0.00,meteohub,2013-09-30 04:50:00,
2013-09-29 23:55:00,63.7,45.1,29.60,South,180,19.0,26.0,51,0.00,,,0.00,meteohub,2013-09-30 04:55:00,